sensor_id;sensor_type;location;lat;lon;timestamp;temperature;humidity
13322;DHT22;6730;46.248;6.930;2022-09-01T00:01:24;18.00;99.90
13322;DHT22;6730;46.248;6.930;2022-09-01T00:03:53;17.80;99.90
13322;DHT22;6730;46.248;6.930;2022-09-01T00:06:21;17.90;99.90
13322;DHT22;6730;46.248;6.930;2022-09-01T00:08:52;17.90;99.90
13322;DHT22;6730;46.248;6.930;2022-09-01T00:11:19;17.80;99.90
13322;DHT22;6730;46.248;6.930;2022-09-01T00:13:45;17.70;99.90
13322;DHT22;6730;46.248;6.930;2022-09-01T00:16:12;17.50;99.90
13322;DHT22;6730;46.248;6.930;2022-09-01T00:18:40;17.30;99.90
13322;DHT22;6730;46.248;6.930;2022-09-01T00:21:10;17.30;99.90
13322;DHT22;6730;46.248;6.930;2022-09-01T00:23:36;17.40;99.90
13322;DHT22;6730;46.248;6.930;2022-09-01T00:26:03;17.70;99.90
13322;DHT22;6730;46.248;6.930;2022-09-01T00:28:32;17.90;99.90
13322;DHT22;6730;46.248;6.930;2022-09-01T00:30:58;18.10;99.90
13322;DHT22;6730;46.248;6.930;2022-09-01T00:33:24;18.20;99.90
13322;DHT22;6730;46.248;6.930;2022-09-01T00:35:49;18.00;99.90
13322;DHT22;6730;46.248;6.930;2022-09-01T00:38:15;17.90;99.90
13322;DHT22;6730;46.248;6.930;2022-09-01T00:40:41;17.30;99.90
13322;DHT22;6730;46.248;6.930;2022-09-01T00:43:45;17.20;99.90
13322;DHT22;6730;46.248;6.930;2022-09-01T00:46:20;17.50;99.90
13322;DHT22;6730;46.248;6.930;2022-09-01T00:48:56;17.70;99.90
13322;DHT22;6730;46.248;6.930;2022-09-01T00:51:25;17.80;99.90
13322;DHT22;6730;46.248;6.930;2022-09-01T00:53:53;17.90;99.90
13322;DHT22;6730;46.248;6.930;2022-09-01T00:56:21;17.80;99.90
13322;DHT22;6730;46.248;6.930;2022-09-01T00:58:48;17.70;99.90
13322;DHT22;6730;46.248;6.930;2022-09-01T01:01:13;17.60;99.90
13322;DHT22;6730;46.248;6.930;2022-09-01T01:03:40;17.50;99.90
13322;DHT22;6730;46.248;6.930;2022-09-01T01:06:07;17.50;99.90
13322;DHT22;6730;46.248;6.930;2022-09-01T01:08:37;17.50;99.90
13322;DHT22;6730;46.248;6.930;2022-09-01T01:11:10;17.60;99.90
13322;DHT22;6730;46.248;6.930;2022-09-01T01:13:59;17.60;99.90
13322;DHT22;6730;46.248;6.930;2022-09-01T01:16:26;17.60;99.90
13322;DHT22;6730;46.248;6.930;2022-09-01T01:18:53;17.60;99.90
13322;DHT22;6730;46.248;6.930;2022-09-01T01:21:41;17.70;99.90
13322;DHT22;6730;46.248;6.930;2022-09-01T01:24:30;17.60;99.90
13322;DHT22;6730;46.248;6.930;2022-09-01T01:26:56;17.50;99.90
13322;DHT22;6730;46.248;6.930;2022-09-01T01:29:33;17.40;99.90
13322;DHT22;6730;46.248;6.930;2022-09-01T01:31:59;17.50;99.90
13322;DHT22;6730;46.248;6.930;2022-09-01T01:34:26;17.50;99.90
13322;DHT22;6730;46.248;6.930;2022-09-01T01:36:52;17.70;99.90
13322;DHT22;6730;46.248;6.930;2022-09-01T01:39:21;17.50;99.90
13322;DHT22;6730;46.248;6.930;2022-09-01T01:41:50;17.60;99.90
13322;DHT22;6730;46.248;6.930;2022-09-01T01:44:20;17.60;99.90
13322;DHT22;6730;46.248;6.930;2022-09-01T01:46:51;17.60;99.90
13322;DHT22;6730;46.248;6.930;2022-09-01T01:49:20;17.60;99.90
13322;DHT22;6730;46.248;6.930;2022-09-01T01:51:47;17.70;99.90
13322;DHT22;6730;46.248;6.930;2022-09-01T01:54:14;17.70;99.90
13322;DHT22;6730;46.248;6.930;2022-09-01T01:56:41;17.70;99.90
13322;DHT22;6730;46.248;6.930;2022-09-01T01:59:08;17.70;99.90
13322;DHT22;6730;46.248;6.930;2022-09-01T02:01:40;17.50;99.90
13322;DHT22;6730;46.248;6.930;2022-09-01T02:04:08;17.30;99.90
13322;DHT22;6730;46.248;6.930;2022-09-01T02:06:36;17.10;99.90
13322;DHT22;6730;46.248;6.930;2022-09-01T02:09:05;16.90;99.90
13322;DHT22;6730;46.248;6.930;2022-09-01T02:11:31;17.00;99.90
13322;DHT22;6730;46.248;6.930;2022-09-01T02:13:58;17.20;99.90
13322;DHT22;6730;46.248;6.930;2022-09-01T02:16:27;17.30;99.90
13322;DHT22;6730;46.248;6.930;2022-09-01T02:18:53;17.40;99.90
13322;DHT22;6730;46.248;6.930;2022-09-01T02:21:20;17.40;99.90
13322;DHT22;6730;46.248;6.930;2022-09-01T02:24:06;17.40;99.90
13322;DHT22;6730;46.248;6.930;2022-09-01T02:26:41;17.50;99.90
13322;DHT22;6730;46.248;6.930;2022-09-01T02:29:15;17.40;99.90
13322;DHT22;6730;46.248;6.930;2022-09-01T02:31:47;17.30;99.90
13322;DHT22;6730;46.248;6.930;2022-09-01T02:34:15;17.10;99.90
13322;DHT22;6730;46.248;6.930;2022-09-01T02:36:50;17.00;99.90
13322;DHT22;6730;46.248;6.930;2022-09-01T02:39:21;17.00;99.90
13322;DHT22;6730;46.248;6.930;2022-09-01T02:41:51;17.20;99.90
13322;DHT22;6730;46.248;6.930;2022-09-01T02:44:18;17.40;99.90
13322;DHT22;6730;46.248;6.930;2022-09-01T02:46:45;17.40;99.90
13322;DHT22;6730;46.248;6.930;2022-09-01T02:49:15;17.50;99.90
13322;DHT22;6730;46.248;6.930;2022-09-01T02:51:43;17.60;99.90
13322;DHT22;6730;46.248;6.930;2022-09-01T02:54:12;17.70;99.90
13322;DHT22;6730;46.248;6.930;2022-09-01T02:56:43;17.70;99.90
13322;DHT22;6730;46.248;6.930;2022-09-01T02:59:13;17.80;99.90
13322;DHT22;6730;46.248;6.930;2022-09-01T03:01:40;17.80;99.90
13322;DHT22;6730;46.248;6.930;2022-09-01T03:04:07;17.90;99.90
13322;DHT22;6730;46.248;6.930;2022-09-01T03:06:35;17.80;99.90
13322;DHT22;6730;46.248;6.930;2022-09-01T03:09:06;17.80;99.90
13322;DHT22;6730;46.248;6.930;2022-09-01T03:11:36;17.90;99.90
13322;DHT22;6730;46.248;6.930;2022-09-01T03:14:03;18.00;99.90
13322;DHT22;6730;46.248;6.930;2022-09-01T03:16:29;17.90;99.90
13322;DHT22;6730;46.248;6.930;2022-09-01T03:18:55;17.90;99.90
13322;DHT22;6730;46.248;6.930;2022-09-01T03:21:22;18.00;99.90
13322;DHT22;6730;46.248;6.930;2022-09-01T03:23:50;17.80;99.90
13322;DHT22;6730;46.248;6.930;2022-09-01T03:26:17;17.70;99.90
13322;DHT22;6730;46.248;6.930;2022-09-01T03:28:46;17.70;99.90
13322;DHT22;6730;46.248;6.930;2022-09-01T03:31:13;17.50;99.90
13322;DHT22;6730;46.248;6.930;2022-09-01T03:33:39;17.20;99.90
13322;DHT22;6730;46.248;6.930;2022-09-01T03:36:07;17.00;99.90
13322;DHT22;6730;46.248;6.930;2022-09-01T03:38:33;16.90;99.90
13322;DHT22;6730;46.248;6.930;2022-09-01T03:41:02;16.90;99.90
13322;DHT22;6730;46.248;6.930;2022-09-01T03:43:30;17.10;99.90
13322;DHT22;6730;46.248;6.930;2022-09-01T03:45:57;17.20;99.90
13322;DHT22;6730;46.248;6.930;2022-09-01T03:48:30;17.40;99.90
13322;DHT22;6730;46.248;6.930;2022-09-01T03:50:58;17.40;99.90
13322;DHT22;6730;46.248;6.930;2022-09-01T03:53:28;17.10;99.90
13322;DHT22;6730;46.248;6.930;2022-09-01T03:55:54;17.20;99.90
13322;DHT22;6730;46.248;6.930;2022-09-01T03:58:23;17.30;99.90
13322;DHT22;6730;46.248;6.930;2022-09-01T04:00:54;17.40;99.90
13322;DHT22;6730;46.248;6.930;2022-09-01T04:03:22;17.20;99.90
13322;DHT22;6730;46.248;6.930;2022-09-01T04:05:50;17.30;99.90
13322;DHT22;6730;46.248;6.930;2022-09-01T04:08:17;17.40;99.90
13322;DHT22;6730;46.248;6.930;2022-09-01T04:10:46;17.20;99.90
13322;DHT22;6730;46.248;6.930;2022-09-01T04:13:27;17.20;99.90
13322;DHT22;6730;46.248;6.930;2022-09-01T04:15:55;17.20;99.90
13322;DHT22;6730;46.248;6.930;2022-09-01T04:18:21;17.40;99.90
13322;DHT22;6730;46.248;6.930;2022-09-01T04:20:53;17.40;99.90
13322;DHT22;6730;46.248;6.930;2022-09-01T04:23:25;17.40;99.90
13322;DHT22;6730;46.248;6.930;2022-09-01T04:28:31;17.20;99.90
13322;DHT22;6730;46.248;6.930;2022-09-01T04:31:01;17.30;99.90
13322;DHT22;6730;46.248;6.930;2022-09-01T04:33:31;17.20;99.90
13322;DHT22;6730;46.248;6.930;2022-09-01T04:36:06;16.90;99.90
13322;DHT22;6730;46.248;6.930;2022-09-01T04:38:37;17.00;99.90
13322;DHT22;6730;46.248;6.930;2022-09-01T04:41:06;17.00;99.90
13322;DHT22;6730;46.248;6.930;2022-09-01T04:43:34;17.10;99.90
13322;DHT22;6730;46.248;6.930;2022-09-01T04:46:00;17.20;99.90
13322;DHT22;6730;46.248;6.930;2022-09-01T04:48:25;17.30;99.90
13322;DHT22;6730;46.248;6.930;2022-09-01T04:50:51;17.30;99.90
13322;DHT22;6730;46.248;6.930;2022-09-01T04:53:18;17.20;99.90
13322;DHT22;6730;46.248;6.930;2022-09-01T04:55:45;17.00;99.90
13322;DHT22;6730;46.248;6.930;2022-09-01T04:58:15;16.80;99.90
13322;DHT22;6730;46.248;6.930;2022-09-01T05:00:48;16.70;99.90
13322;DHT22;6730;46.248;6.930;2022-09-01T05:03:16;16.70;99.90
13322;DHT22;6730;46.248;6.930;2022-09-01T05:05:46;16.90;99.90
13322;DHT22;6730;46.248;6.930;2022-09-01T05:08:17;17.00;99.90
13322;DHT22;6730;46.248;6.930;2022-09-01T05:10:47;17.00;99.90
13322;DHT22;6730;46.248;6.930;2022-09-01T05:13:18;17.10;99.90
13322;DHT22;6730;46.248;6.930;2022-09-01T05:15:45;17.20;99.90
13322;DHT22;6730;46.248;6.930;2022-09-01T05:18:16;17.20;99.90
13322;DHT22;6730;46.248;6.930;2022-09-01T05:20:48;17.00;99.90
13322;DHT22;6730;46.248;6.930;2022-09-01T05:23:14;16.80;99.90
13322;DHT22;6730;46.248;6.930;2022-09-01T05:25:44;16.90;99.90
13322;DHT22;6730;46.248;6.930;2022-09-01T05:28:11;17.10;99.90
13322;DHT22;6730;46.248;6.930;2022-09-01T05:30:39;17.20;99.90
13322;DHT22;6730;46.248;6.930;2022-09-01T05:33:05;17.20;99.90
13322;DHT22;6730;46.248;6.930;2022-09-01T05:35:40;17.10;99.90
13322;DHT22;6730;46.248;6.930;2022-09-01T05:38:09;17.10;99.90
13322;DHT22;6730;46.248;6.930;2022-09-01T05:40:39;17.00;99.90
13322;DHT22;6730;46.248;6.930;2022-09-01T05:43:07;17.00;99.90
13322;DHT22;6730;46.248;6.930;2022-09-01T05:45:35;17.30;99.90
13322;DHT22;6730;46.248;6.930;2022-09-01T05:48:01;17.50;99.90
13322;DHT22;6730;46.248;6.930;2022-09-01T05:50:27;17.60;99.90
13322;DHT22;6730;46.248;6.930;2022-09-01T05:52:53;17.70;99.90
13322;DHT22;6730;46.248;6.930;2022-09-01T05:55:20;17.60;99.90
13322;DHT22;6730;46.248;6.930;2022-09-01T05:57:47;17.60;99.90
13322;DHT22;6730;46.248;6.930;2022-09-01T06:00:14;17.50;99.90
13322;DHT22;6730;46.248;6.930;2022-09-01T06:02:42;17.50;99.90
13322;DHT22;6730;46.248;6.930;2022-09-01T06:05:09;17.60;99.90
13322;DHT22;6730;46.248;6.930;2022-09-01T06:07:35;17.60;99.90
13322;DHT22;6730;46.248;6.930;2022-09-01T06:10:07;17.40;99.90
13322;DHT22;6730;46.248;6.930;2022-09-01T06:12:33;17.60;99.90
13322;DHT22;6730;46.248;6.930;2022-09-01T06:14:59;17.70;99.90
13322;DHT22;6730;46.248;6.930;2022-09-01T06:17:26;17.70;99.90
13322;DHT22;6730;46.248;6.930;2022-09-01T06:19:55;17.70;99.90
13322;DHT22;6730;46.248;6.930;2022-09-01T06:22:21;17.90;99.90
13322;DHT22;6730;46.248;6.930;2022-09-01T06:24:49;18.00;99.90
13322;DHT22;6730;46.248;6.930;2022-09-01T06:27:17;18.00;99.90
13322;DHT22;6730;46.248;6.930;2022-09-01T06:29:45;18.10;99.90
13322;DHT22;6730;46.248;6.930;2022-09-01T06:32:17;18.00;99.90
13322;DHT22;6730;46.248;6.930;2022-09-01T06:34:44;17.90;99.90
13322;DHT22;6730;46.248;6.930;2022-09-01T06:37:14;17.80;99.90
13322;DHT22;6730;46.248;6.930;2022-09-01T06:39:39;17.50;99.90
13322;DHT22;6730;46.248;6.930;2022-09-01T06:42:05;17.40;99.90
13322;DHT22;6730;46.248;6.930;2022-09-01T06:44:34;17.40;99.90
13322;DHT22;6730;46.248;6.930;2022-09-01T06:47:00;17.50;99.90
13322;DHT22;6730;46.248;6.930;2022-09-01T06:49:25;17.60;99.90
13322;DHT22;6730;46.248;6.930;2022-09-01T06:52:01;17.50;99.90
13322;DHT22;6730;46.248;6.930;2022-09-01T06:54:29;17.50;99.90
13322;DHT22;6730;46.248;6.930;2022-09-01T06:56:56;17.50;99.90
13322;DHT22;6730;46.248;6.930;2022-09-01T06:59:27;17.50;99.90
13322;DHT22;6730;46.248;6.930;2022-09-01T07:01:57;17.60;99.90
13322;DHT22;6730;46.248;6.930;2022-09-01T07:04:26;17.80;99.90
13322;DHT22;6730;46.248;6.930;2022-09-01T07:06:54;17.90;99.90
13322;DHT22;6730;46.248;6.930;2022-09-01T07:09:20;17.40;99.90
13322;DHT22;6730;46.248;6.930;2022-09-01T07:11:46;16.80;99.90
13322;DHT22;6730;46.248;6.930;2022-09-01T07:14:11;16.70;99.90
13322;DHT22;6730;46.248;6.930;2022-09-01T07:16:40;16.50;99.90
13322;DHT22;6730;46.248;6.930;2022-09-01T07:19:08;16.50;99.90
13322;DHT22;6730;46.248;6.930;2022-09-01T07:21:41;16.60;99.90
13322;DHT22;6730;46.248;6.930;2022-09-01T07:24:09;16.80;99.90
13322;DHT22;6730;46.248;6.930;2022-09-01T07:26:35;17.10;99.90
13322;DHT22;6730;46.248;6.930;2022-09-01T07:29:04;17.40;99.90
13322;DHT22;6730;46.248;6.930;2022-09-01T07:31:33;17.80;99.90
13322;DHT22;6730;46.248;6.930;2022-09-01T07:34:02;18.30;99.90
13322;DHT22;6730;46.248;6.930;2022-09-01T07:36:31;18.90;99.90
13322;DHT22;6730;46.248;6.930;2022-09-01T07:38:58;19.30;99.90
13322;DHT22;6730;46.248;6.930;2022-09-01T07:41:25;19.80;99.90
13322;DHT22;6730;46.248;6.930;2022-09-01T07:43:52;20.20;99.90
13322;DHT22;6730;46.248;6.930;2022-09-01T07:46:20;20.70;99.90
13322;DHT22;6730;46.248;6.930;2022-09-01T07:48:48;20.60;99.90
13322;DHT22;6730;46.248;6.930;2022-09-01T07:51:17;20.40;99.90
13322;DHT22;6730;46.248;6.930;2022-09-01T07:53:45;20.70;99.90
13322;DHT22;6730;46.248;6.930;2022-09-01T07:56:14;20.50;99.90
13322;DHT22;6730;46.248;6.930;2022-09-01T07:58:40;20.60;99.90
13322;DHT22;6730;46.248;6.930;2022-09-01T08:01:11;20.90;99.90
13322;DHT22;6730;46.248;6.930;2022-09-01T08:03:39;20.60;99.90
13322;DHT22;6730;46.248;6.930;2022-09-01T08:06:10;21.10;99.90
13322;DHT22;6730;46.248;6.930;2022-09-01T08:08:37;21.40;99.90
13322;DHT22;6730;46.248;6.930;2022-09-01T08:11:04;21.00;99.90
13322;DHT22;6730;46.248;6.930;2022-09-01T08:13:35;20.50;99.90
13322;DHT22;6730;46.248;6.930;2022-09-01T08:16:06;20.90;99.90
13322;DHT22;6730;46.248;6.930;2022-09-01T08:18:33;21.40;99.90
13322;DHT22;6730;46.248;6.930;2022-09-01T08:20:58;22.10;99.90
13322;DHT22;6730;46.248;6.930;2022-09-01T08:23:24;22.40;99.90
13322;DHT22;6730;46.248;6.930;2022-09-01T08:25:52;21.40;99.90
13322;DHT22;6730;46.248;6.930;2022-09-01T08:28:18;21.00;99.90
13322;DHT22;6730;46.248;6.930;2022-09-01T08:30:45;21.50;99.90
13322;DHT22;6730;46.248;6.930;2022-09-01T08:33:13;22.20;99.90
13322;DHT22;6730;46.248;6.930;2022-09-01T08:35:40;22.30;99.90
13322;DHT22;6730;46.248;6.930;2022-09-01T08:38:08;22.40;99.90
13322;DHT22;6730;46.248;6.930;2022-09-01T08:40:35;22.70;99.90
13322;DHT22;6730;46.248;6.930;2022-09-01T08:45:48;22.00;99.90
13322;DHT22;6730;46.248;6.930;2022-09-01T08:48:30;21.60;99.90
13322;DHT22;6730;46.248;6.930;2022-09-01T08:51:17;21.30;99.90
13322;DHT22;6730;46.248;6.930;2022-09-01T08:57:01;20.40;99.90
13322;DHT22;6730;46.248;6.930;2022-09-01T08:59:29;21.00;99.90
13322;DHT22;6730;46.248;6.930;2022-09-01T09:02:11;20.90;99.90
13322;DHT22;6730;46.248;6.930;2022-09-01T09:10:28;20.20;99.90
13322;DHT22;6730;46.248;6.930;2022-09-01T09:18:27;20.10;99.90
13322;DHT22;6730;46.248;6.930;2022-09-01T09:20:54;20.80;99.90
13322;DHT22;6730;46.248;6.930;2022-09-01T09:23:32;21.30;99.90
13322;DHT22;6730;46.248;6.930;2022-09-01T09:25:58;21.50;99.90
13322;DHT22;6730;46.248;6.930;2022-09-01T09:28:24;21.00;99.90
13322;DHT22;6730;46.248;6.930;2022-09-01T09:30:50;21.20;99.90
13322;DHT22;6730;46.248;6.930;2022-09-01T09:33:41;22.00;99.90
13322;DHT22;6730;46.248;6.930;2022-09-01T09:36:18;22.80;99.90
13322;DHT22;6730;46.248;6.930;2022-09-01T09:38:44;23.10;99.90
13322;DHT22;6730;46.248;6.930;2022-09-01T09:41:19;23.70;99.90
13322;DHT22;6730;46.248;6.930;2022-09-01T09:43:54;24.20;99.90
13322;DHT22;6730;46.248;6.930;2022-09-01T09:46:37;23.70;99.90
13322;DHT22;6730;46.248;6.930;2022-09-01T09:54:34;23.10;99.90
13322;DHT22;6730;46.248;6.930;2022-09-01T09:57:12;23.00;99.90
13322;DHT22;6730;46.248;6.930;2022-09-01T10:04:51;22.30;99.90
13322;DHT22;6730;46.248;6.930;2022-09-01T10:07:27;21.30;99.90
13322;DHT22;6730;46.248;6.930;2022-09-01T10:09:56;20.90;99.90
13322;DHT22;6730;46.248;6.930;2022-09-01T10:12:25;20.80;99.90
13322;DHT22;6730;46.248;6.930;2022-09-01T10:15:05;21.00;99.90
13322;DHT22;6730;46.248;6.930;2022-09-01T10:17:40;20.80;99.90
13322;DHT22;6730;46.248;6.930;2022-09-01T10:20:08;20.70;99.90
13322;DHT22;6730;46.248;6.930;2022-09-01T10:22:37;20.70;99.90
13322;DHT22;6730;46.248;6.930;2022-09-01T10:25:06;21.10;99.90
13322;DHT22;6730;46.248;6.930;2022-09-01T10:27:36;21.40;99.90
13322;DHT22;6730;46.248;6.930;2022-09-01T10:30:09;21.40;99.90
13322;DHT22;6730;46.248;6.930;2022-09-01T10:35:17;21.00;99.90
13322;DHT22;6730;46.248;6.930;2022-09-01T10:37:45;20.90;99.90
13322;DHT22;6730;46.248;6.930;2022-09-01T10:45:42;20.40;99.90
13322;DHT22;6730;46.248;6.930;2022-09-01T10:48:21;20.40;99.90
13322;DHT22;6730;46.248;6.930;2022-09-01T10:51:33;20.30;99.90
13322;DHT22;6730;46.248;6.930;2022-09-01T10:53:56;20.40;99.90
13322;DHT22;6730;46.248;6.930;2022-09-01T10:56:43;20.80;99.90
13322;DHT22;6730;46.248;6.930;2022-09-01T11:05:08;20.70;99.90
13322;DHT22;6730;46.248;6.930;2022-09-01T11:07:29;20.40;99.90
13322;DHT22;6730;46.248;6.930;2022-09-01T11:10:31;20.30;99.90
13322;DHT22;6730;46.248;6.930;2022-09-01T11:18:52;20.10;99.90
13322;DHT22;6730;46.248;6.930;2022-09-01T11:21:27;20.10;99.90
13322;DHT22;6730;46.248;6.930;2022-09-01T11:26:57;20.40;99.90
13322;DHT22;6730;46.248;6.930;2022-09-01T11:32:16;20.20;99.90
13322;DHT22;6730;46.248;6.930;2022-09-01T11:34:43;20.30;99.90
13322;DHT22;6730;46.248;6.930;2022-09-01T11:37:19;20.00;99.90
13322;DHT22;6730;46.248;6.930;2022-09-01T11:39:51;19.90;99.90
13322;DHT22;6730;46.248;6.930;2022-09-01T11:42:25;19.80;99.90
13322;DHT22;6730;46.248;6.930;2022-09-01T11:44:58;19.90;99.90
13322;DHT22;6730;46.248;6.930;2022-09-01T11:50:27;20.10;99.90
13322;DHT22;6730;46.248;6.930;2022-09-01T11:53:07;20.30;99.90
13322;DHT22;6730;46.248;6.930;2022-09-01T11:58:03;20.30;99.90
13322;DHT22;6730;46.248;6.930;2022-09-01T12:00:37;20.30;99.90
13322;DHT22;6730;46.248;6.930;2022-09-01T12:03:18;20.50;99.90
13322;DHT22;6730;46.248;6.930;2022-09-01T12:05:46;20.60;99.90
13322;DHT22;6730;46.248;6.930;2022-09-01T12:08:16;20.50;99.90
13322;DHT22;6730;46.248;6.930;2022-09-01T12:10:43;20.50;99.90
13322;DHT22;6730;46.248;6.930;2022-09-01T12:15:55;21.10;99.90
13322;DHT22;6730;46.248;6.930;2022-09-01T12:18:23;21.00;99.90
13322;DHT22;6730;46.248;6.930;2022-09-01T12:20:53;20.80;99.90
13322;DHT22;6730;46.248;6.930;2022-09-01T12:23:31;20.80;99.90
13322;DHT22;6730;46.248;6.930;2022-09-01T12:26:07;20.80;99.90
13322;DHT22;6730;46.248;6.930;2022-09-01T12:28:33;21.20;99.90
13322;DHT22;6730;46.248;6.930;2022-09-01T12:31:03;21.10;99.90
13322;DHT22;6730;46.248;6.930;2022-09-01T12:33:31;21.00;99.90
13322;DHT22;6730;46.248;6.930;2022-09-01T12:38:45;21.00;99.90
13322;DHT22;6730;46.248;6.930;2022-09-01T12:41:33;21.00;99.90
13322;DHT22;6730;46.248;6.930;2022-09-01T12:47:04;20.90;99.90
13322;DHT22;6730;46.248;6.930;2022-09-01T12:49:43;20.90;99.90
13322;DHT22;6730;46.248;6.930;2022-09-01T12:55:30;21.10;99.90
13322;DHT22;6730;46.248;6.930;2022-09-01T12:57:34;21.10;99.90
13322;DHT22;6730;46.248;6.930;2022-09-01T13:02:37;21.00;99.90
13322;DHT22;6730;46.248;6.930;2022-09-01T13:07:54;21.00;99.90
13322;DHT22;6730;46.248;6.930;2022-09-01T13:10:22;21.10;99.90
13322;DHT22;6730;46.248;6.930;2022-09-01T13:12:50;21.10;99.90
13322;DHT22;6730;46.248;6.930;2022-09-01T13:15:16;21.20;99.90
13322;DHT22;6730;46.248;6.930;2022-09-01T13:17:42;21.00;99.90
13322;DHT22;6730;46.248;6.930;2022-09-01T13:20:08;21.00;99.90
13322;DHT22;6730;46.248;6.930;2022-09-01T13:22:35;21.00;99.90
13322;DHT22;6730;46.248;6.930;2022-09-01T13:25:03;20.90;99.90
13322;DHT22;6730;46.248;6.930;2022-09-01T13:27:28;20.90;99.90
13322;DHT22;6730;46.248;6.930;2022-09-01T13:29:54;21.00;99.90
13322;DHT22;6730;46.248;6.930;2022-09-01T13:32:20;21.10;99.90
13322;DHT22;6730;46.248;6.930;2022-09-01T13:34:51;21.20;99.90
13322;DHT22;6730;46.248;6.930;2022-09-01T13:37:18;21.20;99.90
13322;DHT22;6730;46.248;6.930;2022-09-01T13:39:44;21.40;99.90
13322;DHT22;6730;46.248;6.930;2022-09-01T13:42:11;21.50;99.90
13322;DHT22;6730;46.248;6.930;2022-09-01T13:44:38;21.30;99.90
13322;DHT22;6730;46.248;6.930;2022-09-01T13:47:04;21.10;99.90
13322;DHT22;6730;46.248;6.930;2022-09-01T13:49:29;21.10;99.90
13322;DHT22;6730;46.248;6.930;2022-09-01T13:51:56;21.20;99.90
13322;DHT22;6730;46.248;6.930;2022-09-01T13:54:21;21.00;99.90
13322;DHT22;6730;46.248;6.930;2022-09-01T13:56:47;20.90;99.90
13322;DHT22;6730;46.248;6.930;2022-09-01T13:59:12;20.80;99.90
13322;DHT22;6730;46.248;6.930;2022-09-01T14:01:38;20.90;99.90
13322;DHT22;6730;46.248;6.930;2022-09-01T14:04:07;20.90;99.90
13322;DHT22;6730;46.248;6.930;2022-09-01T14:06:39;21.00;99.90
13322;DHT22;6730;46.248;6.930;2022-09-01T14:09:05;20.90;99.90
13322;DHT22;6730;46.248;6.930;2022-09-01T14:11:31;20.80;99.90
13322;DHT22;6730;46.248;6.930;2022-09-01T14:13:57;20.80;99.90
13322;DHT22;6730;46.248;6.930;2022-09-01T14:16:22;20.80;99.90
13322;DHT22;6730;46.248;6.930;2022-09-01T14:18:48;20.90;99.90
13322;DHT22;6730;46.248;6.930;2022-09-01T14:21:15;21.00;99.90
13322;DHT22;6730;46.248;6.930;2022-09-01T14:23:42;20.80;99.90
13322;DHT22;6730;46.248;6.930;2022-09-01T14:26:10;20.70;99.90
13322;DHT22;6730;46.248;6.930;2022-09-01T14:28:38;20.60;99.90
13322;DHT22;6730;46.248;6.930;2022-09-01T14:31:09;20.60;99.90
13322;DHT22;6730;46.248;6.930;2022-09-01T14:33:36;20.60;99.90
13322;DHT22;6730;46.248;6.930;2022-09-01T14:36:02;20.80;99.90
13322;DHT22;6730;46.248;6.930;2022-09-01T14:38:29;20.60;99.90
13322;DHT22;6730;46.248;6.930;2022-09-01T14:40:55;20.60;99.90
13322;DHT22;6730;46.248;6.930;2022-09-01T14:43:20;20.80;99.90
13322;DHT22;6730;46.248;6.930;2022-09-01T14:45:48;20.90;99.90
13322;DHT22;6730;46.248;6.930;2022-09-01T14:48:15;21.20;99.90
13322;DHT22;6730;46.248;6.930;2022-09-01T14:50:45;21.30;99.90
13322;DHT22;6730;46.248;6.930;2022-09-01T14:53:13;21.30;99.90
13322;DHT22;6730;46.248;6.930;2022-09-01T14:55:40;20.90;99.90
13322;DHT22;6730;46.248;6.930;2022-09-01T14:58:05;20.60;99.90
13322;DHT22;6730;46.248;6.930;2022-09-01T15:00:32;20.60;99.90
13322;DHT22;6730;46.248;6.930;2022-09-01T15:03:00;20.50;99.90
13322;DHT22;6730;46.248;6.930;2022-09-01T15:05:26;20.60;99.90
13322;DHT22;6730;46.248;6.930;2022-09-01T15:07:52;20.90;99.90
13322;DHT22;6730;46.248;6.930;2022-09-01T15:10:21;21.10;99.90
13322;DHT22;6730;46.248;6.930;2022-09-01T15:12:47;21.00;99.90
13322;DHT22;6730;46.248;6.930;2022-09-01T15:15:15;21.10;99.90
13322;DHT22;6730;46.248;6.930;2022-09-01T15:17:41;20.80;99.90
13322;DHT22;6730;46.248;6.930;2022-09-01T15:20:07;20.50;99.90
13322;DHT22;6730;46.248;6.930;2022-09-01T15:22:52;20.30;99.90
13322;DHT22;6730;46.248;6.930;2022-09-01T15:25:18;20.30;99.90
13322;DHT22;6730;46.248;6.930;2022-09-01T15:27:44;20.30;99.90
13322;DHT22;6730;46.248;6.930;2022-09-01T15:30:12;20.30;99.90
13322;DHT22;6730;46.248;6.930;2022-09-01T15:32:46;20.30;99.90
13322;DHT22;6730;46.248;6.930;2022-09-01T15:35:13;20.40;99.90
13322;DHT22;6730;46.248;6.930;2022-09-01T15:37:39;20.50;99.90
13322;DHT22;6730;46.248;6.930;2022-09-01T15:40:06;20.80;99.90
13322;DHT22;6730;46.248;6.930;2022-09-01T15:42:34;21.20;99.90
13322;DHT22;6730;46.248;6.930;2022-09-01T15:45:03;21.20;99.90
13322;DHT22;6730;46.248;6.930;2022-09-01T15:47:30;21.40;99.90
13322;DHT22;6730;46.248;6.930;2022-09-01T15:49:56;21.20;99.90
13322;DHT22;6730;46.248;6.930;2022-09-01T15:52:22;21.40;99.90
13322;DHT22;6730;46.248;6.930;2022-09-01T15:54:47;21.70;99.90
13322;DHT22;6730;46.248;6.930;2022-09-01T15:57:13;21.90;99.90
13322;DHT22;6730;46.248;6.930;2022-09-01T15:59:38;22.00;99.90
13322;DHT22;6730;46.248;6.930;2022-09-01T16:02:08;21.80;99.90
13322;DHT22;6730;46.248;6.930;2022-09-01T16:04:34;21.80;99.90
13322;DHT22;6730;46.248;6.930;2022-09-01T16:07:01;21.50;99.90
13322;DHT22;6730;46.248;6.930;2022-09-01T16:09:26;21.10;99.90
13322;DHT22;6730;46.248;6.930;2022-09-01T16:11:53;21.00;99.90
13322;DHT22;6730;46.248;6.930;2022-09-01T16:14:20;21.30;99.90
13322;DHT22;6730;46.248;6.930;2022-09-01T16:17:02;21.20;99.90
13322;DHT22;6730;46.248;6.930;2022-09-01T16:19:46;20.90;99.90
13322;DHT22;6730;46.248;6.930;2022-09-01T16:22:33;20.60;99.90
13322;DHT22;6730;46.248;6.930;2022-09-01T16:25:11;20.60;99.90
13322;DHT22;6730;46.248;6.930;2022-09-01T16:27:42;20.50;99.90
13322;DHT22;6730;46.248;6.930;2022-09-01T16:30:20;20.40;99.90
13322;DHT22;6730;46.248;6.930;2022-09-01T16:32:47;20.30;99.90
13322;DHT22;6730;46.248;6.930;2022-09-01T16:35:15;20.30;99.90
13322;DHT22;6730;46.248;6.930;2022-09-01T16:40:36;20.30;99.90
13322;DHT22;6730;46.248;6.930;2022-09-01T16:51:00;19.60;99.90
13322;DHT22;6730;46.248;6.930;2022-09-01T16:54:10;19.60;99.90
13322;DHT22;6730;46.248;6.930;2022-09-01T16:56:37;19.90;99.90
13322;DHT22;6730;46.248;6.930;2022-09-01T17:07:33;19.60;99.90
13322;DHT22;6730;46.248;6.930;2022-09-01T17:12:47;19.40;99.90
13322;DHT22;6730;46.248;6.930;2022-09-01T17:15:30;19.60;99.90
13322;DHT22;6730;46.248;6.930;2022-09-01T17:18:18;19.40;99.90
13322;DHT22;6730;46.248;6.930;2022-09-01T17:20:49;19.30;99.90
13322;DHT22;6730;46.248;6.930;2022-09-01T17:23:23;19.10;99.90
13322;DHT22;6730;46.248;6.930;2022-09-01T17:26:20;18.80;99.90
13322;DHT22;6730;46.248;6.930;2022-09-01T17:29:00;18.70;99.90
13322;DHT22;6730;46.248;6.930;2022-09-01T17:31:50;18.80;99.90
13322;DHT22;6730;46.248;6.930;2022-09-01T17:34:41;19.00;99.90
13322;DHT22;6730;46.248;6.930;2022-09-01T17:37:24;19.30;99.90
13322;DHT22;6730;46.248;6.930;2022-09-01T17:40:18;19.30;99.90
13322;DHT22;6730;46.248;6.930;2022-09-01T17:42:51;19.30;99.90